sensor_id;sensor_type;location;lat;lon;timestamp;pressure;altitude;pressure_sealevel;temperature;humidity
77877;BME280;67251;50.844;7.978;2023-09-19T00:00:59;98144.59;;;12.82;100.00
77877;BME280;67251;50.844;7.978;2023-09-19T00:03:25;98143.31;;;12.72;100.00
77877;BME280;67251;50.844;7.978;2023-09-19T00:05:53;98150.19;;;12.68;100.00
77877;BME280;67251;50.844;7.978;2023-09-19T00:08:20;98155.69;;;12.62;100.00
77877;BME280;67251;50.844;7.978;2023-09-19T00:10:50;98161.72;;;12.57;100.00
77877;BME280;67251;50.844;7.978;2023-09-19T00:13:15;98160.00;;;12.63;100.00
77877;BME280;67251;50.844;7.978;2023-09-19T00:15:42;98150.31;;;12.62;100.00
77877;BME280;67251;50.844;7.978;2023-09-19T00:18:08;98160.06;;;12.56;100.00
77877;BME280;67251;50.844;7.978;2023-09-19T00:20:37;98162.63;;;12.51;100.00
77877;BME280;67251;50.844;7.978;2023-09-19T00:23:04;98169.16;;;12.43;100.00
77877;BME280;67251;50.844;7.978;2023-09-19T00:25:29;98174.66;;;12.48;100.00
77877;BME280;67251;50.844;7.978;2023-09-19T00:27:55;98174.66;;;12.48;100.00
77877;BME280;67251;50.844;7.978;2023-09-19T00:30:20;98179.09;;;12.43;100.00
77877;BME280;67251;50.844;7.978;2023-09-19T00:32:47;98181.03;;;12.36;100.00
77877;BME280;67251;50.844;7.978;2023-09-19T00:35:16;98178.66;;;12.27;100.00
77877;BME280;67251;50.844;7.978;2023-09-19T00:37:42;98180.41;;;12.22;100.00
77877;BME280;67251;50.844;7.978;2023-09-19T00:40:09;98189.75;;;12.19;100.00
77877;BME280;67251;50.844;7.978;2023-09-19T00:42:38;98186.31;;;12.12;100.00
77877;BME280;67251;50.844;7.978;2023-09-19T00:45:05;98178.25;;;12.00;100.00
77877;BME280;67251;50.844;7.978;2023-09-19T00:47:31;98190.91;;;11.93;100.00
77877;BME280;67251;50.844;7.978;2023-09-19T00:49:57;98182.84;;;11.93;100.00
77877;BME280;67251;50.844;7.978;2023-09-19T00:52:22;98180.78;;;11.95;100.00
77877;BME280;67251;50.844;7.978;2023-09-19T00:54:48;98190.38;;;11.85;100.00
77877;BME280;67251;50.844;7.978;2023-09-19T00:57:14;98190.69;;;11.76;100.00
77877;BME280;67251;50.844;7.978;2023-09-19T00:59:41;98189.94;;;11.69;100.00
77877;BME280;67251;50.844;7.978;2023-09-19T01:02:07;98197.81;;;11.64;100.00
77877;BME280;67251;50.844;7.978;2023-09-19T01:04:33;98194.22;;;11.52;100.00
77877;BME280;67251;50.844;7.978;2023-09-19T01:06:59;98192.75;;;11.38;100.00
77877;BME280;67251;50.844;7.978;2023-09-19T01:09:24;98201.94;;;11.23;100.00
77877;BME280;67251;50.844;7.978;2023-09-19T01:11:51;98197.34;;;11.12;100.00
77877;BME280;67251;50.844;7.978;2023-09-19T01:14:59;98198.66;;;11.03;100.00
77877;BME280;67251;50.844;7.978;2023-09-19T01:20:13;98205.00;;;10.84;100.00
77877;BME280;67251;50.844;7.978;2023-09-19T01:26:06;98217.25;;;10.66;100.00
77877;BME280;67251;50.844;7.978;2023-09-19T01:31:21;98221.25;;;10.57;100.00
77877;BME280;67251;50.844;7.978;2023-09-19T01:34:02;98218.41;;;10.52;100.00
77877;BME280;67251;50.844;7.978;2023-09-19T01:36:34;98228.84;;;10.60;100.00
77877;BME280;67251;50.844;7.978;2023-09-19T01:39:05;98229.44;;;10.62;100.00
77877;BME280;67251;50.844;7.978;2023-09-19T01:41:47;98232.56;;;10.59;100.00
77877;BME280;67251;50.844;7.978;2023-09-19T01:52:42;98234.03;;;10.80;100.00
77877;BME280;67251;50.844;7.978;2023-09-19T01:55:10;98228.44;;;10.88;100.00
77877;BME280;67251;50.844;7.978;2023-09-19T01:57:58;98232.91;;;10.94;100.00
77877;BME280;67251;50.844;7.978;2023-09-19T02:00:27;98238.66;;;10.98;100.00
77877;BME280;67251;50.844;7.978;2023-09-19T02:02:55;98231.19;;;11.00;100.00
77877;BME280;67251;50.844;7.978;2023-09-19T02:05:24;98237.75;;;11.04;100.00
77877;BME280;67251;50.844;7.978;2023-09-19T02:07:50;98237.09;;;11.09;100.00
77877;BME280;67251;50.844;7.978;2023-09-19T02:10:15;98243.44;;;11.14;100.00
77877;BME280;67251;50.844;7.978;2023-09-19T02:12:42;98240.09;;;11.19;100.00
77877;BME280;67251;50.844;7.978;2023-09-19T02:15:08;98241.75;;;11.20;100.00
77877;BME280;67251;50.844;7.978;2023-09-19T02:17:34;98237.81;;;11.22;100.00
77877;BME280;67251;50.844;7.978;2023-09-19T02:20:00;98242.94;;;11.24;100.00
77877;BME280;67251;50.844;7.978;2023-09-19T02:22:28;98246.22;;;11.26;100.00
77877;BME280;67251;50.844;7.978;2023-09-19T02:24:54;98252.41;;;11.26;100.00
77877;BME280;67251;50.844;7.978;2023-09-19T02:27:23;98250.31;;;11.29;100.00
77877;BME280;67251;50.844;7.978;2023-09-19T02:29:48;98254.66;;;11.30;100.00
77877;BME280;67251;50.844;7.978;2023-09-19T02:32:14;98253.59;;;11.31;100.00
77877;BME280;67251;50.844;7.978;2023-09-19T02:34:40;98254.81;;;11.35;100.00
77877;BME280;67251;50.844;7.978;2023-09-19T02:37:05;98251.50;;;11.33;100.00
77877;BME280;67251;50.844;7.978;2023-09-19T02:39:32;98265.94;;;11.32;100.00
77877;BME280;67251;50.844;7.978;2023-09-19T02:41:57;98252.56;;;11.32;100.00
77877;BME280;67251;50.844;7.978;2023-09-19T02:44:23;98268.78;;;11.37;100.00
77877;BME280;67251;50.844;7.978;2023-09-19T02:46:49;98261.38;;;11.39;100.00
77877;BME280;67251;50.844;7.978;2023-09-19T02:49:15;98262.09;;;11.46;100.00
77877;BME280;67251;50.844;7.978;2023-09-19T02:51:40;98264.56;;;11.47;100.00
77877;BME280;67251;50.844;7.978;2023-09-19T02:54:06;98262.50;;;11.49;100.00
77877;BME280;67251;50.844;7.978;2023-09-19T02:56:31;98260.19;;;11.53;100.00
77877;BME280;67251;50.844;7.978;2023-09-19T02:58:57;98269.88;;;11.54;100.00
77877;BME280;67251;50.844;7.978;2023-09-19T03:01:23;98269.88;;;11.54;100.00
77877;BME280;67251;50.844;7.978;2023-09-19T03:03:48;98270.06;;;11.52;100.00
77877;BME280;67251;50.844;7.978;2023-09-19T03:06:15;98269.88;;;11.54;100.00
77877;BME280;67251;50.844;7.978;2023-09-19T03:08:41;98274.19;;;11.55;100.00
77877;BME280;67251;50.844;7.978;2023-09-19T03:11:10;98276.84;;;11.55;100.00
77877;BME280;67251;50.844;7.978;2023-09-19T03:13:37;98279.09;;;11.58;100.00
77877;BME280;67251;50.844;7.978;2023-09-19T03:16:04;98273.50;;;11.60;100.00
77877;BME280;67251;50.844;7.978;2023-09-19T03:18:31;98283.66;;;11.58;100.00
77877;BME280;67251;50.844;7.978;2023-09-19T03:20:57;98283.84;;;11.56;100.00
77877;BME280;67251;50.844;7.978;2023-09-19T03:23:25;98287.97;;;11.59;100.00
77877;BME280;67251;50.844;7.978;2023-09-19T03:25:51;98291.06;;;11.56;100.00
77877;BME280;67251;50.844;7.978;2023-09-19T03:28:18;98283.25;;;11.54;100.00
77877;BME280;67251;50.844;7.978;2023-09-19T03:30:43;98290.03;;;11.57;100.00
77877;BME280;67251;50.844;7.978;2023-09-19T03:33:09;98287.00;;;11.53;100.00
77877;BME280;67251;50.844;7.978;2023-09-19T03:35:37;98296.66;;;11.54;100.00
77877;BME280;67251;50.844;7.978;2023-09-19T03:38:04;98294.19;;;11.52;100.00
77877;BME280;67251;50.844;7.978;2023-09-19T03:40:30;98294.63;;;11.49;100.00
77877;BME280;67251;50.844;7.978;2023-09-19T03:42:55;98301.31;;;11.40;100.00
77877;BME280;67251;50.844;7.978;2023-09-19T03:45:20;98294.81;;;11.30;100.00
77877;BME280;67251;50.844;7.978;2023-09-19T03:47:46;98297.50;;;11.30;100.00
77877;BME280;67251;50.844;7.978;2023-09-19T03:50:15;98307.03;;;11.19;100.00
77877;BME280;67251;50.844;7.978;2023-09-19T03:52:45;98311.41;;;11.13;100.00
77877;BME280;67251;50.844;7.978;2023-09-19T03:55:11;98312.13;;;11.02;100.00
77877;BME280;67251;50.844;7.978;2023-09-19T03:57:37;98311.69;;;11.05;100.00
77877;BME280;67251;50.844;7.978;2023-09-19T04:00:03;98318.94;;;10.98;100.00
77877;BME280;67251;50.844;7.978;2023-09-19T04:02:37;98304.94;;;10.96;100.00
77877;BME280;67251;50.844;7.978;2023-09-19T04:05:03;98314.84;;;10.95;100.00
77877;BME280;67251;50.844;7.978;2023-09-19T04:07:28;98317.50;;;10.95;100.00
77877;BME280;67251;50.844;7.978;2023-09-19T04:09:55;98316.09;;;10.93;100.00
77877;BME280;67251;50.844;7.978;2023-09-19T04:12:21;98312.81;;;10.91;100.00
77877;BME280;67251;50.844;7.978;2023-09-19T04:14:46;98317.34;;;10.90;100.00
77877;BME280;67251;50.844;7.978;2023-09-19T04:17:11;98306.69;;;10.84;100.00
77877;BME280;67251;50.844;7.978;2023-09-19T04:19:37;98304.84;;;10.84;100.00
77877;BME280;67251;50.844;7.978;2023-09-19T04:22:02;98309.63;;;10.75;100.00
77877;BME280;67251;50.844;7.978;2023-09-19T04:24:29;98306.72;;;10.77;100.00
77877;BME280;67251;50.844;7.978;2023-09-19T04:26:54;98314.56;;;10.79;100.00
77877;BME280;67251;50.844;7.978;2023-09-19T04:29:19;98317.22;;;10.79;100.00
77877;BME280;67251;50.844;7.978;2023-09-19T04:31:45;98323.41;;;10.72;100.00
77877;BME280;67251;50.844;7.978;2023-09-19T04:34:11;98319.97;;;10.65;100.00
77877;BME280;67251;50.844;7.978;2023-09-19T04:36:40;98335.69;;;10.55;100.00
77877;BME280;67251;50.844;7.978;2023-09-19T04:39:05;98331.44;;;10.41;100.00
77877;BME280;67251;50.844;7.978;2023-09-19T04:41:30;98327.53;;;10.37;100.00
77877;BME280;67251;50.844;7.978;2023-09-19T04:43:56;98332.88;;;10.30;100.00
77877;BME280;67251;50.844;7.978;2023-09-19T04:46:21;98330.84;;;10.26;100.00
77877;BME280;67251;50.844;7.978;2023-09-19T04:48:46;98335.56;;;10.23;100.00
77877;BME280;67251;50.844;7.978;2023-09-19T04:51:12;98340.13;;;10.16;100.00
77877;BME280;67251;50.844;7.978;2023-09-19T04:53:38;98341.75;;;10.17;100.00
77877;BME280;67251;50.844;7.978;2023-09-19T04:56:04;98327.59;;;10.10;100.00
77877;BME280;67251;50.844;7.978;2023-09-19T04:58:31;98334.38;;;10.06;100.00
77877;BME280;67251;50.844;7.978;2023-09-19T05:00:57;98324.50;;;10.07;100.00
77877;BME280;67251;50.844;7.978;2023-09-19T05:03:23;98327.63;;;10.04;100.00
77877;BME280;67251;50.844;7.978;2023-09-19T05:05:48;98327.22;;;10.00;100.00
77877;BME280;67251;50.844;7.978;2023-09-19T05:08:14;98326.81;;;10.03;100.00
77877;BME280;67251;50.844;7.978;2023-09-19T05:10:40;98326.38;;;10.06;100.00
77877;BME280;67251;50.844;7.978;2023-09-19T05:13:06;98328.84;;;10.08;100.00
77877;BME280;67251;50.844;7.978;2023-09-19T05:15:33;98334.38;;;10.06;100.00
77877;BME280;67251;50.844;7.978;2023-09-19T05:17:59;98331.09;;;10.04;100.00
77877;BME280;67251;50.844;7.978;2023-09-19T05:20:24;98335.19;;;10.07;100.00
77877;BME280;67251;50.844;7.978;2023-09-19T05:23:01;98335.41;;;10.05;100.00
77877;BME280;67251;50.844;7.978;2023-09-19T05:25:36;98335.00;;;10.08;100.00
77877;BME280;67251;50.844;7.978;2023-09-19T05:28:05;98342.19;;;10.14;100.00
77877;BME280;67251;50.844;7.978;2023-09-19T05:30:32;98345.66;;;10.15;100.00
77877;BME280;67251;50.844;7.978;2023-09-19T05:32:57;98342.81;;;10.10;100.00
77877;BME280;67251;50.844;7.978;2023-09-19T05:35:23;98343.44;;;10.05;100.00
77877;BME280;67251;50.844;7.978;2023-09-19T05:37:53;98345.88;;;10.07;100.00
77877;BME280;67251;50.844;7.978;2023-09-19T05:40:19;98357.00;;;10.10;100.00
77877;BME280;67251;50.844;7.978;2023-09-19T05:42:45;98354.94;;;10.12;100.00
77877;BME280;67251;50.844;7.978;2023-09-19T05:45:11;98349.56;;;10.19;100.00
77877;BME280;67251;50.844;7.978;2023-09-19T05:47:38;98352.25;;;10.19;100.00
77877;BME280;67251;50.844;7.978;2023-09-19T05:50:04;98358.63;;;10.24;100.00
77877;BME280;67251;50.844;7.978;2023-09-19T05:52:30;98369.72;;;10.28;100.00
77877;BME280;67251;50.844;7.978;2023-09-19T05:54:55;98372.00;;;10.31;100.00
77877;BME280;67251;50.844;7.978;2023-09-19T05:57:21;98379.56;;;10.41;100.00
77877;BME280;67251;50.844;7.978;2023-09-19T05:59:47;98383.47;;;10.45;100.00
77877;BME280;67251;50.844;7.978;2023-09-19T06:02:15;98390.22;;;10.47;100.00
77877;BME280;67251;50.844;7.978;2023-09-19T06:04:41;98392.03;;;10.54;100.00
77877;BME280;67251;50.844;7.978;2023-09-19T06:07:06;98390.78;;;10.63;100.00
77877;BME280;67251;50.844;7.978;2023-09-19T06:09:32;98394.03;;;10.71;100.00
77877;BME280;67251;50.844;7.978;2023-09-19T06:11:58;98405.53;;;10.79;100.00
77877;BME280;67251;50.844;7.978;2023-09-19T06:14:23;98409.63;;;10.88;100.00
77877;BME280;67251;50.844;7.978;2023-09-19T06:16:50;98410.19;;;10.96;100.00
77877;BME280;67251;50.844;7.978;2023-09-19T06:19:15;98419.63;;;11.06;100.00
77877;BME280;67251;50.844;7.978;2023-09-19T06:21:40;98428.00;;;11.16;100.00
77877;BME280;67251;50.844;7.978;2023-09-19T06:24:06;98428.56;;;11.24;100.00
77877;BME280;67251;50.844;7.978;2023-09-19T06:26:32;98429.72;;;11.35;100.00
77877;BME280;67251;50.844;7.978;2023-09-19T06:28:57;98434.38;;;11.46;100.00
77877;BME280;67251;50.844;7.978;2023-09-19T06:31:25;98432.03;;;11.57;100.00
77877;BME280;67251;50.844;7.978;2023-09-19T06:33:52;98417.28;;;11.72;100.00
77877;BME280;67251;50.844;7.978;2023-09-19T06:36:17;98435.13;;;11.85;97.90
77877;BME280;67251;50.844;7.978;2023-09-19T06:38:44;98433.41;;;11.97;97.24
77877;BME280;67251;50.844;7.978;2023-09-19T06:41:10;98434.00;;;12.18;96.83
77877;BME280;67251;50.844;7.978;2023-09-19T06:43:35;98439.03;;;12.33;95.84
77877;BME280;67251;50.844;7.978;2023-09-19T06:46:01;98440.97;;;12.44;95.68
77877;BME280;67251;50.844;7.978;2023-09-19T06:48:26;98454.97;;;12.46;94.73
77877;BME280;67251;50.844;7.978;2023-09-19T06:50:56;98455.81;;;12.46;94.35
77877;BME280;67251;50.844;7.978;2023-09-19T06:53:23;98446.66;;;12.54;94.01
77877;BME280;67251;50.844;7.978;2023-09-19T06:55:52;98457.28;;;12.61;93.96
77877;BME280;67251;50.844;7.978;2023-09-19T06:58:18;98455.66;;;12.60;93.41
77877;BME280;67251;50.844;7.978;2023-09-19T07:00:44;98461.25;;;12.76;93.19
77877;BME280;67251;50.844;7.978;2023-09-19T07:03:09;98464.53;;;12.78;91.25
77877;BME280;67251;50.844;7.978;2023-09-19T07:05:38;98464.81;;;12.89;91.42
77877;BME280;67251;50.844;7.978;2023-09-19T07:08:06;98458.84;;;13.05;90.48
77877;BME280;67251;50.844;7.978;2023-09-19T07:10:32;98465.06;;;13.17;89.92
77877;BME280;67251;50.844;7.978;2023-09-19T07:13:04;98469.84;;;13.34;88.22
77877;BME280;67251;50.844;7.978;2023-09-19T07:15:32;98471.41;;;13.41;87.58
77877;BME280;67251;50.844;7.978;2023-09-19T07:18:00;98477.06;;;13.63;85.79
77877;BME280;67251;50.844;7.978;2023-09-19T07:20:26;98483.00;;;13.84;84.88
77877;BME280;67251;50.844;7.978;2023-09-19T07:22:52;98490.72;;;14.15;82.70
77877;BME280;67251;50.844;7.978;2023-09-19T07:25:20;98483.16;;;14.59;81.34
77877;BME280;67251;50.844;7.978;2023-09-19T07:27:45;98483.03;;;14.77;79.49
77877;BME280;67251;50.844;7.978;2023-09-19T07:30:11;98481.47;;;14.93;78.51
77877;BME280;67251;50.844;7.978;2023-09-19T07:32:37;98485.81;;;14.82;76.94
77877;BME280;67251;50.844;7.978;2023-09-19T07:35:04;98479.69;;;14.99;76.97
77877;BME280;67251;50.844;7.978;2023-09-19T07:37:31;98485.19;;;15.32;76.01
77877;BME280;67251;50.844;7.978;2023-09-19T07:39:59;98484.34;;;15.44;73.77
77877;BME280;67251;50.844;7.978;2023-09-19T07:42:24;98486.63;;;15.80;72.02
77877;BME280;67251;50.844;7.978;2023-09-19T07:44:51;98476.09;;;16.13;69.26
77877;BME280;67251;50.844;7.978;2023-09-19T07:47:16;98482.16;;;16.20;68.95
77877;BME280;67251;50.844;7.978;2023-09-19T07:49:42;98487.06;;;16.06;70.32
77877;BME280;67251;50.844;7.978;2023-09-19T07:52:08;98473.63;;;15.94;69.34
77877;BME280;67251;50.844;7.978;2023-09-19T07:54:34;98479.47;;;15.86;70.56
77877;BME280;67251;50.844;7.978;2023-09-19T07:57:01;98476.53;;;16.04;68.48
77877;BME280;67251;50.844;7.978;2023-09-19T07:59:26;98469.13;;;16.33;65.94
77877;BME280;67251;50.844;7.978;2023-09-19T08:01:52;98465.84;;;16.31;66.58
77877;BME280;67251;50.844;7.978;2023-09-19T08:04:17;98468.72;;;16.08;67.32
77877;BME280;67251;50.844;7.978;2023-09-19T08:06:44;98478.97;;;16.06;66.64
77877;BME280;67251;50.844;7.978;2023-09-19T08:09:10;98481.75;;;16.11;67.07
77877;BME280;67251;50.844;7.978;2023-09-19T08:11:36;98486.75;;;16.19;66.88
77877;BME280;67251;50.844;7.978;2023-09-19T08:14:02;98483.28;;;16.41;66.04
77877;BME280;67251;50.844;7.978;2023-09-19T08:16:27;98484.41;;;16.45;65.56
77877;BME280;67251;50.844;7.978;2023-09-19T08:18:53;98495.59;;;16.70;66.03
77877;BME280;67251;50.844;7.978;2023-09-19T08:21:20;98495.59;;;16.70;63.49
77877;BME280;67251;50.844;7.978;2023-09-19T08:23:45;98487.06;;;16.78;62.95
77877;BME280;67251;50.844;7.978;2023-09-19T08:26:11;98484.81;;;17.14;62.94
77877;BME280;67251;50.844;7.978;2023-09-19T08:28:36;98501.03;;;16.92;63.59
77877;BME280;67251;50.844;7.978;2023-09-19T08:31:06;98495.38;;;16.94;63.04
77877;BME280;67251;50.844;7.978;2023-09-19T08:33:32;98497.19;;;16.88;63.54
77877;BME280;67251;50.844;7.978;2023-09-19T08:35:59;98503.69;;;17.09;61.48
77877;BME280;67251;50.844;7.978;2023-09-19T08:38:24;98500.41;;;17.29;61.06
77877;BME280;67251;50.844;7.978;2023-09-19T08:40:57;98503.53;;;17.43;62.03
77877;BME280;67251;50.844;7.978;2023-09-19T08:43:22;98505.50;;;17.25;60.17
77877;BME280;67251;50.844;7.978;2023-09-19T08:45:49;98503.16;;;17.12;60.42
77877;BME280;67251;50.844;7.978;2023-09-19T08:48:27;98500.59;;;17.22;61.19
77877;BME280;67251;50.844;7.978;2023-09-19T08:51:12;98500.41;;;17.29;61.25
77877;BME280;67251;50.844;7.978;2023-09-19T08:53:59;98504.22;;;17.33;60.78
77877;BME280;67251;50.844;7.978;2023-09-19T08:56:29;98507.75;;;17.33;59.93
77877;BME280;67251;50.844;7.978;2023-09-19T08:59:03;98522.59;;;17.31;60.41
77877;BME280;67251;50.844;7.978;2023-09-19T09:01:38;98514.25;;;17.32;60.20
77877;BME280;67251;50.844;7.978;2023-09-19T09:04:07;98513.72;;;17.84;59.25
77877;BME280;67251;50.844;7.978;2023-09-19T09:06:34;98506.97;;;18.19;59.32
77877;BME280;67251;50.844;7.978;2023-09-19T09:08:59;98512.72;;;18.65;56.07
77877;BME280;67251;50.844;7.978;2023-09-19T09:11:26;98513.53;;;19.13;53.74
77877;BME280;67251;50.844;7.978;2023-09-19T09:13:53;98508.09;;;19.03;55.06
77877;BME280;67251;50.844;7.978;2023-09-19T09:16:18;98511.25;;;18.89;53.76
77877;BME280;67251;50.844;7.978;2023-09-19T09:18:47;98524.34;;;19.03;54.56
77877;BME280;67251;50.844;7.978;2023-09-19T09:21:17;98513.19;;;18.94;53.84
77877;BME280;67251;50.844;7.978;2023-09-19T09:23:43;98517.72;;;19.36;53.68
77877;BME280;67251;50.844;7.978;2023-09-19T09:26:08;98514.72;;;19.42;53.78
77877;BME280;67251;50.844;7.978;2023-09-19T09:28:35;98512.59;;;19.50;51.94
77877;BME280;67251;50.844;7.978;2023-09-19T09:31:02;98515.94;;;19.62;51.17
77877;BME280;67251;50.844;7.978;2023-09-19T09:33:32;98521.91;;;19.89;51.80
77877;BME280;67251;50.844;7.978;2023-09-19T09:35:59;98514.38;;;20.48;50.77
77877;BME280;67251;50.844;7.978;2023-09-19T09:38:44;98519.50;;;20.64;50.81
77877;BME280;67251;50.844;7.978;2023-09-19T09:41:10;98523.84;;;20.55;50.20
77877;BME280;67251;50.844;7.978;2023-09-19T09:43:40;98518.16;;;20.06;50.70
77877;BME280;67251;50.844;7.978;2023-09-19T09:46:17;98520.88;;;20.01;50.10
77877;BME280;67251;50.844;7.978;2023-09-19T09:48:46;98522.50;;;19.91;51.28
77877;BME280;67251;50.844;7.978;2023-09-19T09:51:31;98517.63;;;20.50;48.52
77877;BME280;67251;50.844;7.978;2023-09-19T09:54:15;98523.59;;;20.57;49.16
77877;BME280;67251;50.844;7.978;2023-09-19T09:59:22;98520.84;;;20.36;47.52
77877;BME280;67251;50.844;7.978;2023-09-19T10:01:49;98520.31;;;20.09;47.59
77877;BME280;67251;50.844;7.978;2023-09-19T10:04:27;98529.25;;;19.99;48.85
77877;BME280;67251;50.844;7.978;2023-09-19T10:07:01;98513.81;;;20.20;48.75
77877;BME280;67251;50.844;7.978;2023-09-19T10:09:30;98519.25;;;20.05;49.46
77877;BME280;67251;50.844;7.978;2023-09-19T10:12:11;98523.59;;;20.21;49.17
77877;BME280;67251;50.844;7.978;2023-09-19T10:14:38;98514.34;;;20.37;48.61
77877;BME280;67251;50.844;7.978;2023-09-19T10:17:05;98517.91;;;20.48;48.65
77877;BME280;67251;50.844;7.978;2023-09-19T10:19:52;98503.47;;;20.27;49.40
77877;BME280;67251;50.844;7.978;2023-09-19T10:22:23;98511.91;;;20.21;50.05
77877;BME280;67251;50.844;7.978;2023-09-19T10:24:51;98504.56;;;19.96;49.27
77877;BME280;67251;50.844;7.978;2023-09-19T10:27:19;98492.59;;;20.17;50.46
77877;BME280;67251;50.844;7.978;2023-09-19T10:29:49;98493.94;;;20.76;48.84
77877;BME280;67251;50.844;7.978;2023-09-19T10:32:16;98496.13;;;20.23;49.79
77877;BME280;67251;50.844;7.978;2023-09-19T10:34:46;98492.59;;;20.27;50.01
77877;BME280;67251;50.844;7.978;2023-09-19T10:37:12;98492.91;;;19.95;50.34
77877;BME280;67251;50.844;7.978;2023-09-19T10:39:40;98492.63;;;19.81;49.90
77877;BME280;67251;50.844;7.978;2023-09-19T10:42:07;98474.63;;;19.55;52.56
77877;BME280;67251;50.844;7.978;2023-09-19T10:44:37;98482.03;;;19.95;51.02
77877;BME280;67251;50.844;7.978;2023-09-19T10:47:05;98483.91;;;20.30;51.08
77877;BME280;67251;50.844;7.978;2023-09-19T10:49:32;98487.69;;;20.65;48.98
77877;BME280;67251;50.844;7.978;2023-09-19T10:51:59;98486.38;;;20.16;48.57
77877;BME280;67251;50.844;7.978;2023-09-19T10:54:30;98504.56;;;20.11;49.19
77877;BME280;67251;50.844;7.978;2023-09-19T10:56:59;98501.56;;;19.97;49.97
77877;BME280;67251;50.844;7.978;2023-09-19T10:59:26;98485.53;;;20.47;48.85
77877;BME280;67251;50.844;7.978;2023-09-19T11:02:00;98490.13;;;20.46;48.55
77877;BME280;67251;50.844;7.978;2023-09-19T11:04:42;98496.69;;;20.09;48.32
77877;BME280;67251;50.844;7.978;2023-09-19T11:07:12;98502.38;;;19.82;51.08
77877;BME280;67251;50.844;7.978;2023-09-19T11:09:52;98497.91;;;19.35;50.78
77877;BME280;67251;50.844;7.978;2023-09-19T11:14:54;98491.13;;;18.75;51.56
77877;BME280;67251;50.844;7.978;2023-09-19T11:46:17;98474.59;;;19.39;51.25
77877;BME280;67251;50.844;7.978;2023-09-19T11:48:47;98478.00;;;19.14;50.39
77877;BME280;67251;50.844;7.978;2023-09-19T11:51:14;98483.19;;;19.16;51.40
77877;BME280;67251;50.844;7.978;2023-09-19T11:53:48;98471.88;;;19.50;49.48
77877;BME280;67251;50.844;7.978;2023-09-19T11:56:22;98473.50;;;19.46;50.30
77877;BME280;67251;50.844;7.978;2023-09-19T11:58:50;98465.09;;;19.52;50.66
77877;BME280;67251;50.844;7.978;2023-09-19T12:01:25;98483.84;;;19.54;49.94
77877;BME280;67251;50.844;7.978;2023-09-19T12:03:56;98485.97;;;19.36;48.95
77877;BME280;67251;50.844;7.978;2023-09-19T12:06:23;98489.16;;;19.18;49.69
77877;BME280;67251;50.844;7.978;2023-09-19T12:08:49;98497.50;;;19.01;50.36
77877;BME280;67251;50.844;7.978;2023-09-19T12:11:16;98493.22;;;19.15;50.74
77877;BME280;67251;50.844;7.978;2023-09-19T12:13:45;98479.84;;;18.94;49.75
77877;BME280;67251;50.844;7.978;2023-09-19T12:16:15;98484.59;;;18.71;51.36
77877;BME280;67251;50.844;7.978;2023-09-19T12:18:42;98496.16;;;19.04;50.53
77877;BME280;67251;50.844;7.978;2023-09-19T12:24:13;98494.06;;;19.21;50.16
77877;BME280;67251;50.844;7.978;2023-09-19T12:29:13;98497.63;;;19.32;50.23
77877;BME280;67251;50.844;7.978;2023-09-19T12:31:56;98491.84;;;19.08;50.89
77877;BME280;67251;50.844;7.978;2023-09-19T12:34:30;98487.81;;;19.15;50.54
77877;BME280;67251;50.844;7.978;2023-09-19T12:37:06;98479.69;;;19.21;49.88
77877;BME280;67251;50.844;7.978;2023-09-19T12:39:52;98482.97;;;19.33;49.73
77877;BME280;67251;50.844;7.978;2023-09-19T12:42:24;98495.97;;;19.21;49.11
77877;BME280;67251;50.844;7.978;2023-09-19T12:44:54;98487.97;;;18.94;50.84
77877;BME280;67251;50.844;7.978;2023-09-19T12:47:23;98485.63;;;19.18;48.75
77877;BME280;67251;50.844;7.978;2023-09-19T12:50:11;98483.72;;;19.13;49.80
77877;BME280;67251;50.844;7.978;2023-09-19T12:52:48;98475.50;;;18.93;50.08
77877;BME280;67251;50.844;7.978;2023-09-19T12:55:20;98464.75;;;19.18;49.28
77877;BME280;67251;50.844;7.978;2023-09-19T12:58:07;98467.25;;;19.40;49.13
77877;BME280;67251;50.844;7.978;2023-09-19T13:00:44;98478.34;;;19.33;50.09
77877;BME280;67251;50.844;7.978;2023-09-19T13:03:11;98461.22;;;19.23;48.32
77877;BME280;67251;50.844;7.978;2023-09-19T13:05:48;98466.66;;;19.28;49.67
77877;BME280;67251;50.844;7.978;2023-09-19T13:08:20;98470.34;;;19.79;47.79
77877;BME280;67251;50.844;7.978;2023-09-19T13:11:09;98465.47;;;19.81;46.62
77877;BME280;67251;50.844;7.978;2023-09-19T13:13:37;98454.03;;;19.79;48.26
77877;BME280;67251;50.844;7.978;2023-09-19T13:16:03;98456.13;;;19.47;47.13
77877;BME280;67251;50.844;7.978;2023-09-19T13:18:41;98451.41;;;19.01;48.22
77877;BME280;67251;50.844;7.978;2023-09-19T13:21:12;98455.47;;;19.04;49.16
77877;BME280;67251;50.844;7.978;2023-09-19T13:23:52;98439.00;;;19.15;46.79
77877;BME280;67251;50.844;7.978;2023-09-19T13:26:19;98426.75;;;19.13;48.97
77877;BME280;67251;50.844;7.978;2023-09-19T13:28:45;98430.06;;;19.30;48.63
77877;BME280;67251;50.844;7.978;2023-09-19T13:31:10;98451.81;;;19.46;47.97
77877;BME280;67251;50.844;7.978;2023-09-19T13:33:43;98444.75;;;19.39;47.69
77877;BME280;67251;50.844;7.978;2023-09-19T13:36:09;98443.13;;;19.44;48.18
77877;BME280;67251;50.844;7.978;2023-09-19T13:38:34;98440.91;;;19.30;47.52
77877;BME280;67251;50.844;7.978;2023-09-19T13:41:00;98444.66;;;19.14;48.38
77877;BME280;67251;50.844;7.978;2023-09-19T13:43:27;98433.78;;;18.99;47.84
77877;BME280;67251;50.844;7.978;2023-09-19T13:45:54;98430.00;;;19.10;50.77
77877;BME280;67251;50.844;7.978;2023-09-19T13:48:19;98421.91;;;19.15;48.70
77877;BME280;67251;50.844;7.978;2023-09-19T13:50:47;98428.94;;;19.11;49.01
77877;BME280;67251;50.844;7.978;2023-09-19T13:53:13;98416.63;;;18.83;50.15
77877;BME280;67251;50.844;7.978;2023-09-19T13:55:38;98418.34;;;18.52;51.44
77877;BME280;67251;50.844;7.978;2023-09-19T13:58:03;98415.84;;;18.35;50.71